Time;durP1;ratioP1;P1;durP2;ratioP2;P2;SDS_P1;SDS_P2;PMS_P1;PMS_P2;Temp;Humidity;BMP_temperature;BMP_pressure;BME280_temperature;BME280_humidity;BME280_pressure;Samples;Min_cycle;Max_cycle;Signal;HPM_P1;HPM_P2
2022/04/26 03:36:46;;;;;;;;;;;;;;;10.72;68.55;100900.34;5050819;28;19978;-78
2022/04/26 03:39:11;;;;;;;;;;;;;;;10.79;67.93;100904.56;5057531;28;19928;-78
2022/04/26 03:41:37;;;;;;;;;;;;;;;10.77;68.56;100899.38;5056137;28;20036;-80
2022/04/26 03:44:02;;;;;;;;;;;;;;;10.80;68.76;100901.91;5052842;28;20321;-80
2022/04/26 03:46:28;;;;;;;;;;;;;;;10.75;68.75;100902.88;5043209;28;19920;-80
2022/04/26 03:48:53;;;;;;;;;;;;;;;10.67;69.40;100902.19;5047858;28;19931;-80
2022/04/26 03:51:18;;;;;;;;;;;;;;;10.66;69.18;100906.53;5051801;28;19921;-73
2022/04/26 03:53:44;;;;;;;;;;;;;;;10.75;68.78;100902.88;5053506;28;19967;-74
2022/04/26 03:56:09;;;;;;;;;;;;;;;10.77;68.86;100903.72;5058808;28;19941;-76
2022/04/26 03:58:34;;;;;;;;;;;;;;;10.75;68.96;100905.50;5024805;28;19925;-76
2022/04/26 04:01:00;;;;;;;;;;;;;;;10.65;69.72;100910.00;5046835;28;20003;-76
2022/04/26 04:03:26;;;;;;;;;;;;;;;10.64;68.50;100913.47;5052839;28;19921;-76
2022/04/26 04:05:52;;;;;;;;;;;;;;;10.70;68.46;100910.75;5051889;28;20024;-76
2022/04/26 04:08:17;;;;;;;;;;;;;;;10.66;68.55;100911.72;5044327;28;19917;-76
2022/04/26 04:10:43;;;;;;;;;;;;;;;10.55;68.72;100916.28;5052716;28;19929;-76
2022/04/26 04:13:08;;;;;;;;;;;;;;;10.42;69.27;100918.22;5043151;28;19924;-76
2022/04/26 04:15:33;;;;;;;;;;;;;;;10.48;69.21;100922.44;5043328;28;19932;-78
2022/04/26 04:17:59;;;;;;;;;;;;;;;10.50;69.54;100919.81;5045728;28;20008;-76
2022/04/26 04:20:25;;;;;;;;;;;;;;;10.43;69.56;100919.91;5051464;28;19924;-74
2022/04/26 04:22:53;;;;;;;;;;;;;;;10.57;68.94;100918.81;5050846;28;19917;-73
2022/04/26 04:25:19;;;;;;;;;;;;;;;10.65;68.64;100925.59;5041797;28;20420;-74
2022/04/26 04:27:44;;;;;;;;;;;;;;;10.69;68.65;100924.66;5042930;28;19979;-74
2022/04/26 04:30:10;;;;;;;;;;;;;;;10.65;69.33;100929.91;5049911;28;19991;-74
2022/04/26 04:32:41;;;;;;;;;;;;;;;10.62;68.68;100932.56;5089359;27;19931;-72
2022/04/26 04:35:07;;;;;;;;;;;;;;;10.60;68.68;100929.16;5030077;28;19921;-72
2022/04/26 04:37:32;;;;;;;;;;;;;;;10.48;69.40;100935.44;5020689;28;20302;-76
2022/04/26 04:39:57;;;;;;;;;;;;;;;10.63;69.37;100929.09;5018772;28;20313;-77
2022/04/26 04:42:23;;;;;;;;;;;;;;;10.59;68.54;100936.09;5023790;28;20374;-77
2022/04/26 04:44:48;;;;;;;;;;;;;;;10.68;68.75;100942.84;5026426;28;19927;-78
2022/04/26 04:47:13;;;;;;;;;;;;;;;10.68;68.69;100943.72;5020728;28;20345;-78
2022/04/26 04:49:39;;;;;;;;;;;;;;;10.69;68.51;100936.78;5018828;28;19928;-78
2022/04/26 04:52:04;;;;;;;;;;;;;;;10.66;68.22;100937.69;5024314;28;20060;-78
2022/04/26 04:54:29;;;;;;;;;;;;;;;10.67;68.58;100943.75;5022475;28;20012;-77
2022/04/26 04:56:55;;;;;;;;;;;;;;;10.71;67.61;100951.44;5021316;28;19996;-72
2022/04/26 04:59:20;;;;;;;;;;;;;;;10.69;69.03;100949.78;5020704;28;20382;-75
2022/04/26 05:01:45;;;;;;;;;;;;;;;10.80;68.23;100947.81;5022484;28;19924;-78
2022/04/26 05:04:11;;;;;;;;;;;;;;;10.81;68.25;100953.00;5018309;28;19957;-79
2022/04/26 05:06:36;;;;;;;;;;;;;;;10.73;68.61;100954.03;5021051;28;19934;-79
2022/04/26 05:09:01;;;;;;;;;;;;;;;10.80;67.16;100951.28;5027802;28;19933;-78
2022/04/26 05:11:27;;;;;;;;;;;;;;;10.73;68.51;100964.44;5019997;28;19960;-78
2022/04/26 05:13:52;;;;;;;;;;;;;;;10.67;68.22;100957.56;5025883;28;19925;-77
2022/04/26 05:16:17;;;;;;;;;;;;;;;10.64;69.04;100957.63;5020256;28;19926;-72
2022/04/26 05:18:42;;;;;;;;;;;;;;;10.76;68.45;100953.97;5018505;28;19925;-75
2022/04/26 05:21:09;;;;;;;;;;;;;;;10.79;68.80;100969.50;5011232;28;20287;-75
2022/04/26 05:26:19;;;;;;;;;;;;;;;10.77;66.72;100966.94;5020606;28;19932;-75
2022/04/26 05:28:44;;;;;;;;;;;;;;;10.76;66.97;100957.41;5022714;28;19922;-75
2022/04/26 05:31:09;;;;;;;;;;;;;;;10.73;67.21;100954.03;5020992;28;19975;-72
2022/04/26 05:33:34;;;;;;;;;;;;;;;10.89;67.79;100964.09;5018150;28;19948;-72
2022/04/26 05:36:00;;;;;;;;;;;;;;;10.89;68.35;100964.09;5021989;28;20303;-72
2022/04/26 05:38:25;;;;;;;;;;;;;;;11.00;67.34;100958.69;5019106;28;19980;-72
2022/04/26 05:40:50;;;;;;;;;;;;;;;11.01;67.00;100963.00;5020253;28;20413;-72
2022/04/26 05:43:16;;;;;;;;;;;;;;;10.91;67.68;100958.84;5015367;28;19927;-74
2022/04/26 05:45:41;;;;;;;;;;;;;;;10.92;68.07;100961.44;5000800;28;19929;-75
2022/04/26 05:48:07;;;;;;;;;;;;;;;10.87;68.47;100965.03;5010636;28;19922;-76
2022/04/26 05:50:33;;;;;;;;;;;;;;;10.81;70.05;100972.94;5000496;28;19937;-72
2022/04/26 05:52:58;;;;;;;;;;;;;;;10.70;69.62;100969.69;5006139;28;19929;-72
2022/04/26 05:55:23;;;;;;;;;;;;;;;10.81;68.66;100960.81;5005886;28;19959;-72
2022/04/26 05:57:49;;;;;;;;;;;;;;;10.79;69.57;100974.72;4999650;28;19976;-73
2022/04/26 06:00:14;;;;;;;;;;;;;;;10.73;68.70;100969.63;5007369;28;19925;-72
2022/04/26 06:02:40;;;;;;;;;;;;;;;10.73;68.75;100967.84;5002998;28;19929;-73
2022/04/26 06:05:06;;;;;;;;;;;;;;;10.74;69.00;100971.31;5002578;28;19921;-72
2022/04/26 06:07:31;;;;;;;;;;;;;;;10.80;69.05;100971.22;5003416;28;20551;-72
2022/04/26 06:09:57;;;;;;;;;;;;;;;11.02;68.29;100976.00;5002895;28;19932;-79
2022/04/26 06:12:26;;;;;;;;;;;;;;;10.92;66.64;100968.38;5008801;28;20299;-79
2022/04/26 06:14:52;;;;;;;;;;;;;;;10.69;67.99;100973.16;5007829;28;19929;-76
2022/04/26 06:17:17;;;;;;;;;;;;;;;10.71;67.40;100973.97;5006479;28;19928;-73
2022/04/26 06:19:42;;;;;;;;;;;;;;;10.80;67.43;100971.22;5002014;28;20594;-75
2022/04/26 06:22:07;;;;;;;;;;;;;;;10.80;66.80;100979.88;5009688;28;19926;-75
2022/04/26 06:24:33;;;;;;;;;;;;;;;10.89;66.45;100979.69;5006293;28;20229;-79
2022/04/26 06:26:58;;;;;;;;;;;;;;;10.98;66.73;100976.94;5000438;28;20004;-79
2022/04/26 06:29:23;;;;;;;;;;;;;;;10.83;66.97;100976.34;4992537;28;19984;-78
2022/04/26 06:31:49;;;;;;;;;;;;;;;10.50;68.69;100988.19;5006164;28;19934;-79
2022/04/26 06:34:14;;;;;;;;;;;;;;;10.66;68.17;100981.88;5003974;28;19932;-79
2022/04/26 06:36:39;;;;;;;;;;;;;;;10.79;67.61;100990.31;5006023;28;19965;-79
2022/04/26 06:39:05;;;;;;;;;;;;;;;10.87;67.49;100984.06;5006495;28;19922;-75
2022/04/26 06:41:30;;;;;;;;;;;;;;;10.79;68.12;100985.09;5000955;28;20472;-74
2022/04/26 06:43:56;;;;;;;;;;;;;;;10.95;67.60;100996.91;5004166;28;19926;-75
2022/04/26 06:46:21;;;;;;;;;;;;;;;10.91;68.97;100995.25;5005590;28;19979;-75
2022/04/26 06:48:49;;;;;;;;;;;;;;;10.92;68.90;100994.38;5000071;28;20442;-75
2022/04/26 06:51:14;;;;;;;;;;;;;;;11.11;67.77;100987.94;5001261;28;20319;-75
2022/04/26 06:53:40;;;;;;;;;;;;;;;10.98;67.31;100994.25;5006181;28;19929;-72
2022/04/26 06:56:05;;;;;;;;;;;;;;;11.07;67.67;100995.81;5005082;28;20008;-79
2022/04/26 06:58:33;;;;;;;;;;;;;;;11.05;66.51;100995.88;5005301;28;19929;-79
2022/04/26 07:01:00;;;;;;;;;;;;;;;11.05;65.95;101001.06;5004159;28;20024;-79
2022/04/26 07:03:25;;;;;;;;;;;;;;;10.81;67.11;100994.59;4999683;28;20406;-79
2022/04/26 07:05:51;;;;;;;;;;;;;;;10.82;67.41;100998.88;5008718;28;19945;-77
2022/04/26 07:08:19;;;;;;;;;;;;;;;10.93;66.86;101001.28;5008503;28;20378;-77
2022/04/26 07:10:44;;;;;;;;;;;;;;;10.75;67.96;101006.81;5020440;28;20007;-77
2022/04/26 07:13:09;;;;;;;;;;;;;;;10.91;67.62;101006.50;4997261;28;20043;-77
2022/04/26 07:15:35;;;;;;;;;;;;;;;10.96;68.07;101011.63;5002083;28;19972;-77
2022/04/26 07:18:00;;;;;;;;;;;;;;;11.03;65.86;101008.88;5010631;28;19983;-77
2022/04/26 07:20:28;;;;;;;;;;;;;;;10.95;66.59;101013.38;5008995;28;19929;-77
2022/04/26 07:22:53;;;;;;;;;;;;;;;10.87;65.96;101014.41;5009694;28;19928;-72
2022/04/26 07:25:18;;;;;;;;;;;;;;;10.97;65.50;101013.31;5013100;28;19917;-72
2022/04/26 07:27:43;;;;;;;;;;;;;;;11.10;66.61;101016.56;5012631;28;20440;-72
2022/04/26 07:30:09;;;;;;;;;;;;;;;11.08;66.58;101014.00;5006623;28;19926;-72
2022/04/26 07:35:18;;;;;;;;;;;;;;;10.94;66.99;101019.44;5001730;28;20070;-73
2022/04/26 07:37:43;;;;;;;;;;;;;;;10.79;67.72;101026.69;5006115;28;20410;-72
2022/04/26 07:40:12;;;;;;;;;;;;;;;11.01;66.28;101025.41;5011132;28;19980;-73
2022/04/26 07:42:37;;;;;;;;;;;;;;;11.12;66.36;101015.63;5007112;28;19957;-72
2022/04/26 07:45:03;;;;;;;;;;;;;;;11.10;67.06;101020.03;5014320;28;19972;-72
2022/04/26 07:47:29;;;;;;;;;;;;;;;10.76;67.37;101022.38;5003068;28;19945;-72
2022/04/26 07:49:54;;;;;;;;;;;;;;;10.62;68.20;101036.50;5004870;28;19971;-76
2022/04/26 07:52:20;;;;;;;;;;;;;;;10.82;66.74;101037.84;5003418;28;19974;-72
2022/04/26 07:54:46;;;;;;;;;;;;;;;10.66;67.34;101039.03;5005004;28;19944;-72
2022/04/26 07:57:12;;;;;;;;;;;;;;;10.80;67.23;101044.84;5000179;28;19932;-77
2022/04/26 07:59:37;;;;;;;;;;;;;;;10.83;67.83;101047.38;5008819;28;19926;-79
2022/04/26 08:02:06;;;;;;;;;;;;;;;10.67;67.53;101055.47;5016000;28;19937;-79
2022/04/26 08:04:31;;;;;;;;;;;;;;;10.62;67.80;101059.88;5012626;28;20033;-79
2022/04/26 08:06:56;;;;;;;;;;;;;;;10.79;67.07;101056.09;5002905;28;20438;-77
2022/04/26 08:09:21;;;;;;;;;;;;;;;10.89;66.43;101064.59;5003196;28;19933;-77
2022/04/26 08:11:47;;;;;;;;;;;;;;;10.49;66.96;101060.97;5002466;28;19930;-79
2022/04/26 08:14:12;;;;;;;;;;;;;;;10.52;66.74;101071.31;5008727;28;19933;-78
2022/04/26 08:16:38;;;;;;;;;;;;;;;10.55;67.20;101066.06;5006485;28;19974;-79
2022/04/26 08:19:04;;;;;;;;;;;;;;;10.65;66.86;101076.25;5003862;28;19934;-79
2022/04/26 08:21:29;;;;;;;;;;;;;;;10.55;67.54;101074.72;5004596;28;20023;-79
2022/04/26 08:29:22;;;;;;;;;;;;;;;10.81;66.22;101088.13;5013220;28;20347;-77
2022/04/26 08:31:48;;;;;;;;;;;;;;;10.70;66.50;101094.41;5017889;28;19925;-77
2022/04/26 08:34:13;;;;;;;;;;;;;;;10.71;66.63;101102.16;5013643;28;20383;-77
2022/04/26 08:36:38;;;;;;;;;;;;;;;10.74;66.21;101099.50;5007587;28;19921;-77
2022/04/26 08:39:04;;;;;;;;;;;;;;;10.55;66.33;101108.50;5008129;28;19944;-76
2022/04/26 08:41:29;;;;;;;;;;;;;;;10.71;66.85;101103.88;5011035;28;20298;-76
2022/04/26 08:43:55;;;;;;;;;;;;;;;10.65;66.85;101112.63;5012369;28;19913;-77
2022/04/26 08:46:20;;;;;;;;;;;;;;;10.97;66.14;101114.69;5009846;28;19925;-77
2022/04/26 08:51:29;;;;;;;;;;;;;;;10.75;65.69;101132.41;5013086;28;20044;-77
2022/04/26 08:53:55;;;;;;;;;;;;;;;10.65;65.52;101133.44;4992496;28;19949;-77
2022/04/26 08:56:21;;;;;;;;;;;;;;;10.78;65.37;101132.38;5011450;28;19920;-76
2022/04/26 08:58:46;;;;;;;;;;;;;;;10.79;65.68;101135.81;5011665;28;19917;-77
2022/04/26 09:01:19;;;;;;;;;;;;;;;10.88;65.41;101136.50;5008287;28;19922;-77
2022/04/26 09:03:58;;;;;;;;;;;;;;;10.89;65.59;101134.78;5004398;28;19935;-76
2022/04/26 09:06:32;;;;;;;;;;;;;;;10.85;65.07;101144.34;5006834;28;19930;-76
2022/04/26 09:09:08;;;;;;;;;;;;;;;10.93;64.49;101139.91;5011420;28;19921;-72
2022/04/26 09:11:34;;;;;;;;;;;;;;;10.95;64.36;101143.34;5007431;28;19930;-72
2022/04/26 09:14:04;;;;;;;;;;;;;;;10.92;64.76;101165.91;5011088;28;20405;-72
2022/04/26 09:16:29;;;;;;;;;;;;;;;10.97;64.10;101153.69;5010160;28;19928;-79
2022/04/26 09:18:59;;;;;;;;;;;;;;;10.78;64.92;101154.88;5011814;28;19922;-79
2022/04/26 09:21:27;;;;;;;;;;;;;;;10.87;64.42;101166.00;5009270;28;20032;-79
2022/04/26 09:23:55;;;;;;;;;;;;;;;10.86;64.12;101164.28;4998914;28;19980;-79
2022/04/26 09:26:20;;;;;;;;;;;;;;;10.79;64.36;101167.84;5008423;28;19928;-78
2022/04/26 09:28:47;;;;;;;;;;;;;;;10.69;64.95;101170.63;5014585;28;20289;-79
2022/04/26 09:31:39;;;;;;;;;;;;;;;10.89;64.20;101176.34;5011769;28;19926;-75
2022/04/26 09:34:11;;;;;;;;;;;;;;;10.76;64.97;101174.84;5013539;28;19936;-74
2022/04/26 09:36:44;;;;;;;;;;;;;;;10.69;64.21;101174.06;5014155;28;20370;-75
2022/04/26 09:39:09;;;;;;;;;;;;;;;10.71;64.55;101187.91;5023073;28;20298;-75
2022/04/26 09:41:34;;;;;;;;;;;;;;;10.74;65.05;101192.19;5012614;28;19925;-75
2022/04/26 09:44:01;;;;;;;;;;;;;;;10.90;63.75;101188.47;5020885;28;20369;-72
2022/04/26 09:46:42;;;;;;;;;;;;;;;10.89;64.13;101189.34;5011498;28;20283;-72
2022/04/26 09:49:11;;;;;;;;;;;;;;;10.78;64.26;101194.72;5008764;28;19926;-72
2022/04/26 09:51:36;;;;;;;;;;;;;;;10.80;63.63;101198.16;5017680;28;19929;-72
2022/04/26 09:54:02;;;;;;;;;;;;;;;10.81;63.91;101204.22;5012447;28;19921;-72
2022/04/26 09:56:29;;;;;;;;;;;;;;;10.83;63.74;101211.09;5016901;28;20048;-72
2022/04/26 09:58:57;;;;;;;;;;;;;;;10.58;64.47;101204.56;5018777;28;20464;-76
2022/04/26 10:01:23;;;;;;;;;;;;;;;10.67;65.04;101195.78;5013369;28;20036;-76
2022/04/26 10:03:51;;;;;;;;;;;;;;;10.72;64.45;101209.53;5009542;28;20036;-77
2022/04/26 10:06:18;;;;;;;;;;;;;;;10.76;64.19;101206.88;5011603;28;19921;-72
2022/04/26 10:08:44;;;;;;;;;;;;;;;10.85;64.25;101214.53;5013210;28;19933;-72
2022/04/26 10:11:09;;;;;;;;;;;;;;;10.77;63.77;101205.13;5011356;28;19929;-72
2022/04/26 10:13:39;;;;;;;;;;;;;;;10.85;63.46;101204.13;5014733;28;20012;-72
2022/04/26 10:16:05;;;;;;;;;;;;;;;11.02;63.16;101201.28;5007843;28;19930;-72
2022/04/26 10:18:48;;;;;;;;;;;;;;;10.91;64.05;101210.97;5006930;28;20552;-72
2022/04/26 10:21:34;;;;;;;;;;;;;;;11.13;62.86;101211.50;5004729;28;20019;-78
2022/04/26 10:24:03;;;;;;;;;;;;;;;11.28;63.37;101214.75;5002571;28;19925;-76
2022/04/26 10:26:30;;;;;;;;;;;;;;;11.35;62.22;101215.50;5014627;28;19928;-76
2022/04/26 10:29:00;;;;;;;;;;;;;;;11.24;63.22;101225.19;5016928;28;20417;-76
2022/04/26 10:31:42;;;;;;;;;;;;;;;11.31;62.27;101222.50;5012883;28;20066;-76
2022/04/26 10:34:31;;;;;;;;;;;;;;;11.26;62.50;101223.44;5017309;28;19928;-72
2022/04/26 10:37:06;;;;;;;;;;;;;;;11.29;62.56;101226.88;5017140;28;19956;-72
2022/04/26 10:39:32;;;;;;;;;;;;;;;11.37;62.17;101219.81;5009112;28;19965;-74
2022/04/26 10:41:59;;;;;;;;;;;;;;;11.33;62.30;101223.31;5005070;28;19918;-75
2022/04/26 10:44:26;;;;;;;;;;;;;;;11.49;61.83;101222.19;5010766;28;20016;-75
2022/04/26 10:47:04;;;;;;;;;;;;;;;11.43;62.01;101226.63;5008663;28;20008;-75
2022/04/26 10:49:32;;;;;;;;;;;;;;;11.28;61.70;101222.56;5007021;28;20421;-75
2022/04/26 10:52:23;;;;;;;;;;;;;;;11.19;62.74;101232.22;5011436;28;20618;-75
2022/04/26 10:54:51;;;;;;;;;;;;;;;11.35;62.19;101226.78;5006413;28;19926;-75
2022/04/26 10:57:27;;;;;;;;;;;;;;;10.99;63.75;101228.19;5014656;28;19932;-72
2022/04/26 10:59:54;;;;;;;;;;;;;;;11.14;63.43;101231.44;5021253;28;19970;-72
2022/04/26 11:02:20;;;;;;;;;;;;;;;11.21;62.71;101236.50;5014176;28;20342;-72
2022/04/26 11:04:45;;;;;;;;;;;;;;;11.36;63.82;101238.88;5008406;28;19918;-72
2022/04/26 11:07:17;;;;;;;;;;;;;;;11.37;63.48;101240.59;5015382;28;19960;-72
2022/04/26 11:09:50;;;;;;;;;;;;;;;11.27;63.21;101241.59;5008192;28;20401;-78
2022/04/26 11:12:19;;;;;;;;;;;;;;;11.16;63.12;101242.66;5002962;28;19944;-78
2022/04/26 11:14:45;;;;;;;;;;;;;;;11.38;62.83;101246.69;5006691;28;20541;-78
2022/04/26 11:17:10;;;;;;;;;;;;;;;11.28;61.46;101251.16;5009867;28;19923;-79
2022/04/26 11:19:36;;;;;;;;;;;;;;;11.45;61.21;101250.88;5007460;28;20587;-79
2022/04/26 11:22:09;;;;;;;;;;;;;;;11.36;61.88;101248.41;5003013;28;19955;-79
2022/04/26 11:30:04;;;;;;;;;;;;;;;11.59;60.29;101238.50;4999832;28;19932;-77
2022/04/26 11:32:43;;;;;;;;;;;;;;;11.72;60.57;101249.53;5001315;28;19921;-72
2022/04/26 11:35:09;;;;;;;;;;;;;;;11.73;60.32;101249.53;5003025;28;19921;-72
2022/04/26 11:37:44;;;;;;;;;;;;;;;11.51;60.97;101245.56;5001238;28;19979;-77
2022/04/26 11:40:09;;;;;;;;;;;;;;;11.73;61.47;101257.31;4998536;28;19980;-77
2022/04/26 11:42:35;;;;;;;;;;;;;;;11.75;60.68;101246.88;4998446;28;19964;-77
2022/04/26 11:45:05;;;;;;;;;;;;;;;11.68;60.20;101250.50;5004009;28;19921;-75
2022/04/26 11:47:39;;;;;;;;;;;;;;;11.49;60.25;101255.16;5002921;28;19921;-75
2022/04/26 11:50:09;;;;;;;;;;;;;;;11.85;59.96;101251.03;5002780;28;19927;-79
2022/04/26 11:52:34;;;;;;;;;;;;;;;11.83;59.82;101256.25;5004080;28;20612;-79
2022/04/26 11:54:59;;;;;;;;;;;;;;;11.83;59.79;101251.03;5000387;28;19929;-79
2022/04/26 11:57:25;;;;;;;;;;;;;;;11.80;59.97;101251.09;4998476;28;19967;-79
2022/04/26 11:59:50;;;;;;;;;;;;;;;11.76;59.52;101253.81;5007684;28;19922;-79
2022/04/26 12:02:15;;;;;;;;;;;;;;;11.79;59.95;101249.41;4997404;28;19932;-78
2022/04/26 12:04:41;;;;;;;;;;;;;;;11.68;58.87;101251.31;5006996;28;20272;-79
2022/04/26 12:07:07;;;;;;;;;;;;;;;11.79;58.77;101256.34;5011686;28;20399;-79
2022/04/26 12:09:33;;;;;;;;;;;;;;;11.88;58.18;101250.97;5008839;28;19981;-79
2022/04/26 12:12:02;;;;;;;;;;;;;;;11.82;59.19;101258.91;5005639;28;20450;-79
2022/04/26 12:14:27;;;;;;;;;;;;;;;11.84;59.08;101257.97;5007755;28;19931;-79
2022/04/26 12:16:56;;;;;;;;;;;;;;;11.85;58.23;101258.84;4999531;28;19925;-76
2022/04/26 12:19:36;;;;;;;;;;;;;;;11.81;58.35;101254.56;4999397;28;20048;-79
2022/04/26 12:22:02;;;;;;;;;;;;;;;11.87;58.78;101257.06;5002740;28;19948;-79
2022/04/26 12:24:29;;;;;;;;;;;;;;;11.97;58.72;101253.41;5003797;28;20390;-78
2022/04/26 12:26:56;;;;;;;;;;;;;;;11.97;58.69;101243.88;4999170;28;19929;-77
2022/04/26 12:29:23;;;;;;;;;;;;;;;11.89;59.42;101248.34;5004328;28;20409;-77
2022/04/26 12:31:48;;;;;;;;;;;;;;;11.81;58.94;101254.56;5003707;28;19968;-72
2022/04/26 12:34:18;;;;;;;;;;;;;;;11.69;59.59;101241.78;5004471;28;19965;-72
2022/04/26 12:36:54;;;;;;;;;;;;;;;11.65;59.58;101247.94;4997867;28;20397;-72
2022/04/26 12:39:23;;;;;;;;;;;;;;;11.77;59.41;101252.94;4997046;28;19929;-72
2022/04/26 12:41:51;;;;;;;;;;;;;;;11.79;59.21;101238.13;5001372;28;20060;-72
2022/04/26 12:44:16;;;;;;;;;;;;;;;11.83;59.16;101243.25;4999609;28;19936;-73
2022/04/26 12:52:39;;;;;;;;;;;;;;;11.27;69.30;101305.75;5010252;28;19991;-75
2022/04/26 12:55:04;;;;;;;;;;;;;;;11.24;70.13;101313.59;5003718;28;19926;-74
2022/04/26 12:57:30;;;;;;;;;;;;;;;11.47;68.85;101321.97;5008281;28;19948;-75
2022/04/26 12:59:55;;;;;;;;;;;;;;;11.45;69.01;101321.97;5014693;28;19925;-75
2022/04/26 13:02:20;;;;;;;;;;;;;;;11.39;67.52;101322.06;5011306;28;19926;-75
2022/04/26 13:04:46;;;;;;;;;;;;;;;11.37;68.25;101328.19;5007805;28;19961;-75
2022/04/26 13:07:11;;;;;;;;;;;;;;;11.38;68.89;101325.53;5006382;28;20020;-75
2022/04/26 13:09:36;;;;;;;;;;;;;;;11.30;69.12;101329.16;5012055;28;19925;-75
2022/04/26 13:12:03;;;;;;;;;;;;;;;11.20;69.91;101330.16;5010086;28;20024;-75
2022/04/26 13:14:28;;;;;;;;;;;;;;;11.12;69.92;101322.44;5013038;28;19926;-75
2022/04/26 13:16:54;;;;;;;;;;;;;;;11.00;69.45;101317.41;5017406;28;19979;-75
2022/04/26 13:19:19;;;;;;;;;;;;;;;11.05;69.54;101319.97;5012146;28;19987;-75
2022/04/26 13:21:44;;;;;;;;;;;;;;;11.11;70.21;101323.34;5015233;28;19979;-75
2022/04/26 13:24:10;;;;;;;;;;;;;;;10.84;69.88;101326.31;5008884;28;20286;-72
2022/04/26 13:26:36;;;;;;;;;;;;;;;10.94;71.21;101335.69;5015689;28;19921;-71
2022/04/26 13:29:03;;;;;;;;;;;;;;;10.93;70.91;101334.00;5026953;28;20424;-71
2022/04/26 13:31:28;;;;;;;;;;;;;;;10.63;71.62;101321.38;5009407;28;20365;-78
2022/04/26 13:33:56;;;;;;;;;;;;;;;10.50;72.07;101317.22;5016029;28;20032;-72
2022/04/26 13:36:21;;;;;;;;;;;;;;;10.50;71.93;101309.41;5009239;28;20748;-76
2022/04/26 13:38:47;;;;;;;;;;;;;;;10.59;71.61;101312.75;5015496;28;19934;-76
2022/04/26 13:41:12;;;;;;;;;;;;;;;10.68;71.11;101314.38;5008786;28;19934;-76
2022/04/26 13:43:41;;;;;;;;;;;;;;;10.70;71.39;101321.28;5018645;28;19924;-75
2022/04/26 13:46:07;;;;;;;;;;;;;;;10.82;71.68;101325.50;5017808;28;20684;-75
2022/04/26 13:48:32;;;;;;;;;;;;;;;10.83;71.90;101324.59;5007060;28;19928;-75
2022/04/26 13:50:58;;;;;;;;;;;;;;;10.76;73.07;101329.00;5003365;28;20383;-75
2022/04/26 13:53:23;;;;;;;;;;;;;;;10.76;73.43;101331.59;5005473;28;19994;-75
2022/04/26 13:55:48;;;;;;;;;;;;;;;10.83;72.28;101320.25;5002541;28;20051;-74
2022/04/26 13:58:13;;;;;;;;;;;;;;;10.68;72.55;101314.38;5008768;28;19960;-78
2022/04/26 14:00:39;;;;;;;;;;;;;;;10.76;71.56;101312.56;5008505;28;19929;-78
2022/04/26 14:03:06;;;;;;;;;;;;;;;10.75;71.91;101321.25;5008658;28;19935;-78
2022/04/26 14:05:31;;;;;;;;;;;;;;;10.83;71.01;101327.19;5011303;28;19990;-78
2022/04/26 14:07:56;;;;;;;;;;;;;;;10.87;71.90;101334.06;5013514;28;19913;-78
2022/04/26 14:10:22;;;;;;;;;;;;;;;10.95;71.08;101351.28;5011857;28;20382;-78
2022/04/26 14:12:47;;;;;;;;;;;;;;;11.08;70.72;101343.31;5004944;28;19976;-78
2022/04/26 14:23:28;;;;;;;;;;;;;;;11.09;71.51;101316.44;5003606;28;19978;-72
2022/04/26 14:25:53;;;;;;;;;;;;;;;11.12;71.93;101319.00;5014446;28;20443;-71
2022/04/26 14:28:19;;;;;;;;;;;;;;;10.99;72.21;101323.50;5005410;28;19932;-75
2022/04/26 14:30:44;;;;;;;;;;;;;;;10.98;72.25;101320.06;5008404;28;19983;-76
2022/04/26 14:33:09;;;;;;;;;;;;;;;11.09;72.65;101312.09;5005970;28;19929;-76
2022/04/26 14:35:35;;;;;;;;;;;;;;;11.09;73.00;101309.47;5001734;28;19921;-76
2022/04/26 14:38:00;;;;;;;;;;;;;;;11.14;73.37;101312.91;5005821;28;19917;-78
2022/04/26 14:40:26;;;;;;;;;;;;;;;11.20;73.53;101314.56;5003455;28;20383;-71
2022/04/26 14:42:54;;;;;;;;;;;;;;;11.18;73.14;101309.34;5006703;28;19929;-72
2022/04/26 14:45:19;;;;;;;;;;;;;;;11.35;72.91;101309.16;5005988;28;19925;-71
2022/04/26 14:47:44;;;;;;;;;;;;;;;11.36;72.18;101308.25;5007519;28;20398;-71
2022/04/26 14:50:09;;;;;;;;;;;;;;;11.29;72.66;101314.44;5004200;28;19967;-72
2022/04/26 14:52:36;;;;;;;;;;;;;;;11.39;72.44;101319.47;5003520;28;19926;-71
2022/04/26 14:55:04;;;;;;;;;;;;;;;11.25;72.64;101312.72;5004546;28;20406;-78
2022/04/26 14:57:29;;;;;;;;;;;;;;;11.40;71.85;101321.19;5003680;28;20020;-78
2022/04/26 14:59:55;;;;;;;;;;;;;;;11.44;72.54;101327.22;5007123;28;20023;-78
2022/04/26 15:02:21;;;;;;;;;;;;;;;11.28;72.71;101330.91;5003625;28;19956;-77
2022/04/26 15:04:47;;;;;;;;;;;;;;;11.49;72.47;101330.59;5002756;28;19925;-77
2022/04/26 15:07:12;;;;;;;;;;;;;;;11.50;71.78;101338.38;5002860;28;19921;-76
2022/04/26 15:09:44;;;;;;;;;;;;;;;11.49;71.31;101335.81;5005384;28;20310;-76
2022/04/26 15:17:42;;;;;;;;;;;;;;;11.40;70.60;101348.94;5004084;28;19933;-76
2022/04/26 15:20:07;;;;;;;;;;;;;;;11.47;69.28;101348.81;5004477;28;19926;-76
2022/04/26 15:22:34;;;;;;;;;;;;;;;11.58;71.61;101356.47;4998032;28;19991;-76
2022/04/26 15:24:59;;;;;;;;;;;;;;;11.47;69.73;101358.38;5004236;28;19925;-76
2022/04/26 15:27:24;;;;;;;;;;;;;;;11.51;70.24;101360.91;5016439;28;19928;-76
2022/04/26 15:29:50;;;;;;;;;;;;;;;11.34;70.38;101375.91;5001490;28;19932;-76
2022/04/26 15:32:15;;;;;;;;;;;;;;;11.22;71.02;101383.00;5006734;28;21422;-78
2022/04/26 15:34:41;;;;;;;;;;;;;;;11.32;70.17;101403.69;5001651;28;19921;-78
2022/04/26 15:37:06;;;;;;;;;;;;;;;11.39;69.36;101414.84;5007539;28;19976;-78
2022/04/26 15:39:32;;;;;;;;;;;;;;;11.35;70.01;101414.06;5003131;28;19926;-78
2022/04/26 15:41:59;;;;;;;;;;;;;;;11.40;70.30;101411.38;5004575;28;19932;-78
2022/04/26 15:44:25;;;;;;;;;;;;;;;11.32;70.68;101411.50;5007583;28;19926;-77
2022/04/26 15:46:52;;;;;;;;;;;;;;;11.27;71.11;101404.59;5004619;28;19921;-78
2022/04/26 15:49:18;;;;;;;;;;;;;;;11.26;70.98;101410.69;5008086;28;19926;-78
2022/04/26 15:51:44;;;;;;;;;;;;;;;11.43;70.54;101413.94;5000942;28;20366;-78
2022/04/26 15:54:09;;;;;;;;;;;;;;;11.43;68.61;101419.13;4998828;28;20047;-78
2022/04/26 15:56:35;;;;;;;;;;;;;;;11.41;69.72;101416.53;4998819;28;19925;-78
2022/04/26 15:59:01;;;;;;;;;;;;;;;11.21;71.74;101418.53;5004932;28;19922;-78
2022/04/26 16:01:26;;;;;;;;;;;;;;;11.04;72.30;101415.28;4998853;28;19932;-72
2022/04/26 16:03:52;;;;;;;;;;;;;;;11.00;72.55;101413.59;5001705;28;19925;-71
2022/04/26 16:06:18;;;;;;;;;;;;;;;11.05;72.93;101419.63;4999524;28;20723;-72
2022/04/26 16:08:44;;;;;;;;;;;;;;;11.30;72.53;101407.16;5000371;28;19928;-76
2022/04/26 16:20:28;;;;;;;;;;;;;;;11.32;72.26;101408.91;5000507;28;20142;-76
2022/04/26 16:22:06;;;;;;;;;;;;;;;11.33;72.52;101408.00;5003739;28;19972;-71
2022/04/26 16:24:38;;;;;;;;;;;;;;;11.37;71.68;101407.09;5005509;28;19928;-71
2022/04/26 16:27:04;;;;;;;;;;;;;;;11.22;71.91;101406.41;5008806;28;19932;-74
2022/04/26 16:29:29;;;;;;;;;;;;;;;11.30;71.54;101412.38;5011031;28;19917;-72
2022/04/26 16:31:55;;;;;;;;;;;;;;;11.34;71.52;101408.88;5003028;28;20402;-76
2022/04/26 16:34:20;;;;;;;;;;;;;;;11.22;72.23;101407.25;5006494;28;20379;-76
2022/04/26 16:36:46;;;;;;;;;;;;;;;11.33;70.97;101410.59;5005422;28;19921;-76
2022/04/26 16:39:11;;;;;;;;;;;;;;;11.32;70.92;101410.63;5005682;28;19936;-76
2022/04/26 16:41:37;;;;;;;;;;;;;;;11.23;70.03;101414.19;5002247;28;19972;-76
2022/04/26 16:44:02;;;;;;;;;;;;;;;11.28;70.51;101417.63;5002838;28;20422;-76
2022/04/26 16:46:32;;;;;;;;;;;;;;;11.24;71.64;101408.09;5004711;28;19999;-76
2022/04/26 16:48:58;;;;;;;;;;;;;;;11.18;72.42;101404.69;5004065;28;20052;-76
2022/04/26 16:51:25;;;;;;;;;;;;;;;11.14;72.36;101414.31;4999015;28;20138;-76
2022/04/26 16:53:50;;;;;;;;;;;;;;;11.25;72.05;101406.34;5005301;28;20420;-76
2022/04/26 16:56:15;;;;;;;;;;;;;;;11.29;72.24;101408.06;5003992;28;19922;-75